Time;durP1;ratioP1;P1;durP2;ratioP2;P2;SDS_P1;SDS_P2;PMS_P1;PMS_P2;Temp;Humidity;BMP_temperature;BMP_pressure;BME280_temperature;BME280_humidity;BME280_pressure;Samples;Min_cycle;Max_cycle;Signal;HPM_P1;HPM_P2
2023/05/21 00:00:24;;;;;;;6.28;3.90;;;;;;;;;;6243028;23;20370;-81
2023/05/21 00:02:50;;;;;;;5.80;4.10;;;;;;;;;;6241964;23;20366;-81
2023/05/21 00:05:17;;;;;;;8.20;4.43;;;;;;;;;;6217795;23;20460;-80
2023/05/21 00:07:45;;;;;;;7.43;4.33;;;;;;;;;;6242772;23;20454;-79
2023/05/21 00:10:11;;;;;;;6.93;4.40;;;;;;;;;;6242657;23;20369;-78
2023/05/21 00:12:38;;;;;;;7.95;4.68;;;;;;;;;;6217676;23;20410;-80
2023/05/21 00:15:04;;;;;;;7.50;4.28;;;;;;;;;;6192560;23;20389;-80
2023/05/21 00:17:30;;;;;;;6.45;4.32;;;;;;;;;;6241677;23;20823;-81
2023/05/21 00:19:56;;;;;;;6.78;4.50;;;;;;;;;;6243533;23;20358;-81
2023/05/21 00:22:22;;;;;;;7.63;4.47;;;;;;;;;;6217367;23;20405;-81
2023/05/21 00:24:49;;;;;;;6.78;4.63;;;;;;;;;;6243110;23;20739;-81
2023/05/21 00:27:15;;;;;;;7.25;4.60;;;;;;;;;;6217365;23;20840;-81
2023/05/21 00:29:41;;;;;;;8.20;4.53;;;;;;;;;;6242647;23;20427;-79
2023/05/21 00:32:07;;;;;;;6.75;4.32;;;;;;;;;;6242891;23;20368;-79
2023/05/21 00:34:33;;;;;;;6.88;4.63;;;;;;;;;;6242877;23;20405;-78
2023/05/21 00:37:01;;;;;;;8.03;5.03;;;;;;;;;;6242569;23;20416;-80
2023/05/21 00:39:27;;;;;;;6.47;4.65;;;;;;;;;;6243186;23;20377;-80
2023/05/21 00:41:55;;;;;;;9.05;4.60;;;;;;;;;;6217911;23;20361;-81
2023/05/21 00:44:22;;;;;;;6.25;4.38;;;;;;;;;;6217621;23;20392;-81
2023/05/21 00:46:52;;;;;;;7.35;4.72;;;;;;;;;;6243720;23;20362;-80
2023/05/21 00:49:18;;;;;;;7.05;4.35;;;;;;;;;;6217845;23;20366;-80
2023/05/21 00:51:45;;;;;;;6.57;4.00;;;;;;;;;;6243451;23;20370;-80
2023/05/21 00:54:11;;;;;;;8.93;4.60;;;;;;;;;;6218486;23;20670;-80
2023/05/21 00:56:38;;;;;;;7.43;4.35;;;;;;;;;;6216830;23;20394;-81
2023/05/21 00:59:04;;;;;;;7.32;4.70;;;;;;;;;;6218267;23;20366;-80
2023/05/21 01:01:35;;;;;;;10.30;4.90;;;14.80;99.90;;;;;;6243343;23;21089;-78
2023/05/21 01:04:01;;;;;;;8.50;4.55;;;;;;;;;;6217322;23;20358;-78
2023/05/21 01:06:27;;;;;;;8.32;4.75;;;;;;;;;;6242659;23;20366;-80
2023/05/21 01:08:57;;;;;;;9.20;4.95;;;;;;;;;;6243005;23;20370;-80
2023/05/21 01:11:40;;;;;;;8.73;4.63;;;14.70;99.90;;;;;;6218154;23;20362;-79
2023/05/21 01:14:09;;;;;;;7.53;4.60;;;;;;;;;;6241335;23;20373;-80
2023/05/21 01:16:41;;;;;;;8.43;4.72;;;15.00;99.90;;;;;;6217689;23;20385;-80
2023/05/21 01:19:09;;;;;;;8.63;4.80;;;15.10;99.90;;;;;;6217352;23;20373;-80
2023/05/21 01:21:36;;;;;;;9.50;4.83;;;;;;;;;;6217755;23;20400;-80
2023/05/21 01:24:04;;;;;;;8.65;5.05;;;;;;;;;;6243679;23;20372;-80
2023/05/21 01:26:32;;;;;;;8.43;4.70;;;;;;;;;;6217871;23;20510;-80
2023/05/21 01:28:58;;;;;;;7.63;4.88;;;;;;;;;;6243341;23;20370;-80
2023/05/21 01:31:36;;;;;;;8.57;4.80;;;14.70;99.90;;;;;;6242058;23;20373;-80
2023/05/21 01:34:05;;;;;;;7.88;5.05;;;14.60;99.90;;;;;;6242138;23;20843;-80
2023/05/21 01:36:36;;;;;;;7.75;4.90;;;14.90;99.90;;;;;;6216249;23;20386;-80
2023/05/21 01:39:07;;;;;;;6.50;4.90;;;;;;;;;;6246178;23;20749;-79
2023/05/21 01:41:38;;;;;;;10.43;5.17;;;14.60;99.90;;;;;;6245846;23;20365;-79
2023/05/21 01:44:05;;;;;;;6.28;4.63;;;;;;;;;;6219334;23;20366;-79
2023/05/21 01:46:35;;;;;;;7.87;4.97;;;14.60;99.90;;;;;;6244693;23;20451;-79
2023/05/21 01:49:01;;;;;;;10.15;5.22;;;;;;;;;;6217827;23;20366;-78
2023/05/21 01:51:27;;;;;;;6.55;4.88;;;;;;;;;;6244302;23;20700;-79
2023/05/21 01:53:53;;;;;;;8.97;5.10;;;;;;;;;;6218918;23;20373;-80
2023/05/21 01:56:24;;;;;;;10.30;4.93;;;;;;;;;;6244367;23;20389;-81
2023/05/21 01:58:50;;;;;;;9.73;5.38;;;14.50;99.90;;;;;;6244598;23;20362;-80
2023/05/21 02:01:16;;;;;;;8.50;5.28;;;;;;;;;;6244671;23;20366;-81
2023/05/21 02:03:42;;;;;;;7.63;5.20;;;;;;;;;;6218469;23;20428;-80
2023/05/21 02:06:08;;;;;;;9.97;5.30;;;14.40;99.90;;;;;;6244278;23;20455;-80
2023/05/21 02:08:34;;;;;;;7.53;4.83;;;;;;;;;;6218708;23;20370;-80
2023/05/21 02:11:00;;;;;;;8.80;5.22;;;;;;;;;;6244269;23;20369;-80
2023/05/21 02:13:28;;;;;;;6.80;4.97;;;;;;;;;;6244176;23;20791;-80
2023/05/21 02:15:54;;;;;;;8.02;5.28;;;;;;;;;;6244226;23;20396;-79
2023/05/21 02:18:21;;;;;;;8.10;5.15;;;;;;;;;;6243422;23;20396;-81
2023/05/21 02:20:47;;;;;;;8.85;5.40;;;;;;;;;;6243681;23;20377;-80
2023/05/21 02:23:13;;;;;;;8.20;5.40;;;;;;;;;;6218519;23;20389;-80
2023/05/21 02:25:39;;;;;;;8.23;5.45;;;;;;;;;;6219235;23;20455;-79
2023/05/21 02:28:05;;;;;;;7.53;5.60;;;;;;;;;;6244170;23;20366;-79
2023/05/21 02:30:31;;;;;;;7.60;5.55;;;;;;;;;;6244009;23;20436;-79
2023/05/21 02:32:57;;;;;;;9.43;5.70;;;;;;;;;;6243748;23;20370;-80
2023/05/21 02:35:24;;;;;;;7.97;5.43;;;;;;;;;;6243683;23;20397;-79
2023/05/21 02:37:50;;;;;;;9.68;5.50;;;;;;;;;;6244573;23;20369;-79
2023/05/21 02:40:16;;;;;;;9.63;5.60;;;;;;;;;;6243942;23;20838;-78
2023/05/21 02:42:42;;;;;;;8.85;5.88;;;;;;;;;;6218669;23;20412;-79
2023/05/21 02:45:10;;;;;;;9.63;6.18;;;14.30;99.90;;;;;;6243065;23;20680;-80
2023/05/21 02:47:37;;;;;;;8.40;5.97;;;;;;;;;;6243218;23;20373;-80
2023/05/21 02:50:03;;;;;;;9.95;6.20;;;;;;;;;;6242654;23;20372;-79
2023/05/21 02:52:29;;;;;;;9.75;6.20;;;;;;;;;;6243921;23;20844;-80
2023/05/21 02:54:55;;;;;;;12.88;6.32;;;;;;;;;;6242875;23;21013;-80
2023/05/21 02:57:21;;;;;;;11.32;6.60;;;;;;;;;;6242773;23;20840;-80
2023/05/21 02:59:47;;;;;;;10.68;6.95;;;;;;;;;;6242555;23;20362;-80
2023/05/21 03:02:13;;;;;;;11.23;6.65;;;;;;;;;;6218188;23;20735;-79
2023/05/21 03:04:44;;;;;;;8.48;6.40;;;;;;;;;;6243415;23;20416;-78
2023/05/21 03:07:14;;;;;;;9.07;6.57;;;;;;;;;;6243198;23;20366;-78
2023/05/21 03:09:41;;;;;;;10.05;6.97;;;14.10;99.90;;;;;;6243679;23;20839;-79
2023/05/21 03:12:07;;;;;;;10.23;7.00;;;;;;;;;;6242895;23;20369;-81
2023/05/21 03:14:34;;;;;;;9.85;6.63;;;;;;;;;;6243358;23;20362;-81
2023/05/21 03:17:02;;;;;;;10.80;6.88;;;;;;;;;;6244281;23;20362;-81
2023/05/21 03:19:30;;;;;;;10.95;6.70;;;;;;;;;;6244148;23;20436;-80
2023/05/21 03:21:56;;;;;;;11.43;7.30;;;;;;;;;;6243147;23;20400;-80
2023/05/21 03:24:22;;;;;;;9.77;7.05;;;;;;;;;;6243472;23;20445;-80
2023/05/21 03:26:49;;;;;;;9.95;7.20;;;;;;;;;;6243913;23;20648;-80
2023/05/21 03:29:15;;;;;;;10.32;6.70;;;;;;;;;;6194335;23;20751;-80
2023/05/21 03:31:41;;;;;;;13.15;7.20;;;;;;;;;;6218111;23;20370;-79
2023/05/21 03:34:07;;;;;;;10.80;7.38;;;;;;;;;;6218085;23;20424;-79
2023/05/21 03:36:34;;;;;;;10.50;7.20;;;;;;;;;;6242211;23;20713;-78
2023/05/21 03:39:00;;;;;;;10.50;7.15;;;;;;;;;;6243713;23;20744;-79
2023/05/21 03:41:26;;;;;;;12.55;6.88;;;;;;;;;;6218241;23;20404;-79
2023/05/21 03:43:52;;;;;;;11.00;6.67;;;;;;;;;;6218250;23;20362;-79
2023/05/21 03:46:18;;;;;;;11.20;7.10;;;;;;;;;;6217585;23;20404;-80
2023/05/21 03:48:44;;;;;;;12.63;7.30;;;;;;;;;;6243172;23;20456;-80
2023/05/21 03:51:12;;;;;;;10.00;7.13;;;;;;;;;;6242774;23;20377;-80
2023/05/21 03:53:38;;;;;;;12.00;7.35;;;;;;;;;;6193688;23;20435;-81
2023/05/21 03:56:04;;;;;;;13.15;8.20;;;;;;;;;;6242456;23;20719;-81
2023/05/21 03:58:30;;;;;;;13.23;8.40;;;;;;;;;;6241526;23;20366;-80
2023/05/21 04:00:56;;;;;;;12.00;8.13;;;;;;;;;;6241083;23;20366;-79
2023/05/21 04:03:22;;;;;;;10.90;7.85;;;;;;;;;;6242388;23;20856;-81
2023/05/21 04:05:48;;;;;;;13.43;7.60;;;;;;;;;;6217952;23;20696;-81
2023/05/21 04:08:15;;;;;;;13.60;8.07;;;;;;;;;;6241454;23;20370;-81
2023/05/21 04:10:41;;;;;;;12.23;8.07;;;;;;;;;;6217834;23;20365;-80
2023/05/21 04:13:07;;;;;;;12.13;7.65;;;;;;;;;;6243311;23;20398;-81
2023/05/21 04:15:34;;;;;;;11.98;7.60;;;;;;;;;;6216807;23;20461;-81
2023/05/21 04:18:00;;;;;;;12.88;7.80;;;;;;;;;;6218125;23;20366;-81
2023/05/21 04:20:26;;;;;;;12.35;7.82;;;;;;;;;;6243378;23;20423;-79
2023/05/21 04:22:52;;;;;;;12.23;7.35;;;;;;;;;;6242679;23;20388;-79
2023/05/21 04:25:20;;;;;;;13.80;7.80;;;;;;;;;;6217488;23;20785;-79
2023/05/21 04:27:46;;;;;;;11.98;7.78;;;;;;;;;;6243681;23;20370;-81
2023/05/21 04:30:13;;;;;;;15.05;7.65;;;;;;;;;;6217404;23;20400;-80
2023/05/21 04:32:39;;;;;;;11.85;7.43;;;;;;;;;;6242684;23;20373;-79
2023/05/21 04:35:05;;;;;;;15.40;7.88;;;;;;;;;;6242811;23;20396;-79
2023/05/21 04:37:33;;;;;;;12.23;7.38;;;;;;;;;;6242919;23;20845;-79
2023/05/21 04:40:00;;;;;;;11.13;7.20;;;;;;;;;;6216823;23;20384;-80
2023/05/21 04:42:26;;;;;;;11.48;7.70;;;;;;;;;;6242366;23;20366;-79
2023/05/21 04:44:54;;;;;;;14.43;7.90;;;;;;;;;;6216901;23;20393;-79
2023/05/21 04:47:20;;;;;;;12.30;7.47;;;;;;;;;;6241165;23;20376;-79
2023/05/21 04:49:46;;;;;;;11.52;7.45;;;;;;;;;;6241550;23;20477;-79
2023/05/21 04:52:13;;;;;;;10.38;6.97;;;;;;;;;;6242110;23;20441;-79
2023/05/21 04:54:40;;;;;;;13.10;7.30;;;;;;;;;;6243549;23;20377;-80
2023/05/21 04:57:07;;;;;;;10.38;6.55;;;;;;;;;;6245941;23;20373;-80
2023/05/21 04:59:33;;;;;;;12.23;6.93;;;;;;;;;;6219656;23;20365;-80
2023/05/21 05:01:59;;;;;;;13.30;6.60;;;;;;;;;;6191589;23;20397;-80
2023/05/21 05:04:25;;;;;;;11.88;6.70;;;;;;;;;;6242540;23;20373;-80
2023/05/21 05:06:51;;;;;;;9.90;6.45;;;;;;;;;;6241833;23;20431;-80
2023/05/21 05:09:20;;;;;;;9.77;6.47;;;;;;;;;;6242846;23;20853;-78
2023/05/21 05:11:46;;;;;;;13.15;6.50;;;;;;;;;;6242871;23;20401;-79
2023/05/21 05:14:12;;;;;;;11.25;6.18;;;;;;;;;;6218776;23;20366;-79
2023/05/21 05:16:38;;;;;;;11.38;6.50;;;;;;;;;;6243035;23;20421;-78
2023/05/21 05:19:04;;;;;;;11.77;6.10;;;;;;;;;;6218865;23;20416;-79
2023/05/21 05:21:30;;;;;;;10.48;6.32;;;;;;;;;;6218865;23;20366;-80
2023/05/21 05:23:56;;;;;;;11.45;6.43;;;;;;;;;;6243372;23;20366;-79
2023/05/21 05:26:22;;;;;;;12.05;6.13;;;;;;;;;;6243848;23;20369;-79
2023/05/21 05:28:48;;;;;;;9.32;5.75;;;;;;;;;;6244644;23;20516;-80
2023/05/21 05:31:15;;;;;;;10.60;6.40;;;;;;;;;;6218147;23;20375;-80
2023/05/21 05:33:41;;;;;;;10.13;5.95;;;;;;;;;;6242892;23;20374;-80
2023/05/21 05:36:07;;;;;;;10.40;5.60;;;;;;;;;;6217849;23;20389;-79
2023/05/21 05:38:33;;;;;;;11.00;5.88;;;14.70;99.90;;;;;;6218800;23;20420;-79
2023/05/21 05:40:59;;;;;;;11.98;5.60;;;;;;;;;;6218305;23;20393;-79
2023/05/21 05:43:26;;;;;;;10.85;5.60;;;;;;;;;;6218433;23;21186;-80
2023/05/21 05:45:52;;;;;;;8.48;5.60;;;;;;;;;;6242684;23;20393;-80
2023/05/21 05:48:18;;;;;;;9.43;5.50;;;;;;;;;;6218418;23;20370;-80
2023/05/21 05:50:45;;;;;;;12.25;5.78;;;;;;;;;;6245748;23;20440;-81
2023/05/21 05:53:12;;;;;;;9.90;5.60;;;;;;;;;;6217737;23;20781;-81
2023/05/21 05:55:39;;;;;;;10.88;5.25;;;14.70;99.90;;;;;;6242768;23;20397;-79
2023/05/21 05:58:05;;;;;;;11.23;5.40;;;;;;;;;;6244077;23;20895;-78
2023/05/21 06:00:31;;;;;;;10.35;5.40;;;;;;;;;;6237812;23;20362;-78
2023/05/21 06:02:57;;;;;;;10.57;5.68;;;;;;;;;;6216611;23;20394;-79
2023/05/21 06:05:23;;;;;;;10.93;5.68;;;;;;;;;;6242723;23;20366;-78
2023/05/21 06:07:49;;;;;;;10.32;5.40;;;;;;;;;;6215801;23;20393;-78
2023/05/21 06:10:15;;;;;;;8.02;5.25;;;;;;;;;;6243255;23;20836;-77
2023/05/21 06:12:41;;;;;;;8.93;5.18;;;;;;;;;;6242960;23;20374;-77
2023/05/21 06:15:08;;;;;;;9.23;5.23;;;;;;;;;;6242318;23;20473;-78
2023/05/21 06:17:34;;;;;;;10.38;5.40;;;;;;;;;;6217323;23;20441;-78
2023/05/21 06:20:00;;;;;;;11.18;5.70;;;;;;;;;;6238103;23;20549;-77
2023/05/21 06:22:26;;;;;;;9.70;5.10;;;;;;;;;;6239863;23;20468;-78
2023/05/21 06:24:52;;;;;;;12.43;5.43;;;15.00;99.90;;;;;;6212613;23;20366;-79
2023/05/21 06:27:18;;;;;;;8.10;5.10;;;;;;;;;;6236548;23;20405;-78
2023/05/21 06:29:44;;;;;;;10.55;5.70;;;;;;;;;;6239620;23;20374;-79
2023/05/21 06:32:10;;;;;;;10.77;4.88;;;;;;;;;;6240958;23;20828;-78
2023/05/21 06:34:36;;;;;;;10.63;5.40;;;;;;;;;;6242799;23;20362;-78
2023/05/21 06:37:02;;;;;;;12.27;5.43;;;;;;;;;;6242317;23;20398;-79
2023/05/21 06:39:28;;;;;;;9.23;5.40;;;15.60;99.90;;;;;;6217115;23;20373;-78
2023/05/21 06:41:54;;;;;;;10.30;5.50;;;15.50;99.90;;;;;;6242806;23;20366;-78
2023/05/21 06:44:21;;;;;;;8.65;5.07;;;;;;;;;;6214019;23;20366;-78
2023/05/21 06:46:47;;;;;;;11.77;5.60;;;;;;;;;;6218132;23;20416;-77
2023/05/21 06:49:13;;;;;;;7.75;5.25;;;;;;;;;;6216328;23;20374;-78
2023/05/21 06:51:39;;;;;;;7.72;4.97;;;;;;;;;;6243404;23;20370;-78
2023/05/21 06:54:06;;;;;;;10.82;5.45;;;;;;;;;;6242565;23;20401;-78
2023/05/21 06:56:32;;;;;;;11.40;5.53;;;;;;;;;;6218325;23;20400;-78
2023/05/21 06:58:58;;;;;;;10.73;5.63;;;;;;;;;;6217018;23;20366;-78
2023/05/21 07:01:24;;;;;;;9.60;5.10;;;;;;;;;;6241845;23;20361;-79
2023/05/21 07:03:50;;;;;;;10.63;5.20;;;;;;;;;;6241677;23;20849;-78
2023/05/21 07:06:17;;;;;;;7.85;5.03;;;;;;;;;;6189377;23;20370;-78
2023/05/21 07:08:43;;;;;;;9.63;4.75;;;;;;;;;;6216649;23;20370;-78
2023/05/21 07:11:09;;;;;;;9.65;5.28;;;;;;;;;;6216450;23;20744;-79
2023/05/21 07:13:35;;;;;;;10.88;5.47;;;;;;;;;;6242165;23;20358;-78
2023/05/21 07:16:02;;;;;;;9.68;5.28;;;;;;;;;;6215055;23;20390;-79
2023/05/21 07:18:28;;;;;;;9.15;5.22;;;;;;;;;;6216348;23;20393;-80
2023/05/21 07:20:54;;;;;;;10.10;5.50;;;;;;;;;;6216643;23;20373;-79
2023/05/21 07:23:20;;;;;;;9.52;5.38;;;;;;;;;;6241780;23;20381;-78
2023/05/21 07:25:46;;;;;;;9.13;5.63;;;16.30;99.90;;;;;;6193449;23;20453;-80
2023/05/21 07:28:12;;;;;;;9.37;5.40;;;16.20;99.90;;;;;;6245479;23;20870;-80
2023/05/21 07:30:38;;;;;;;9.37;5.60;;;;;;;;;;6242984;23;20377;-80
2023/05/21 07:33:04;;;;;;;7.88;5.22;;;;;;;;;;6243707;23;20377;-80
2023/05/21 07:35:30;;;;;;;9.77;5.40;;;;;;;;;;6241868;23;20764;-79
2023/05/21 07:37:55;;;;;;;10.93;5.97;;;16.50;99.90;;;;;;6244203;23;20384;-80
2023/05/21 07:40:22;;;;;;;8.50;5.27;;;;;;;;;;6241728;23;20875;-80
2023/05/21 07:42:48;;;;;;;7.97;5.38;;;;;;;;;;6215439;23;20372;-80
2023/05/21 07:45:14;;;;;;;12.95;5.72;;;;;;;;;;6215510;23;20366;-80
2023/05/21 07:47:40;;;;;;;11.35;5.78;;;;;;;;;;6243243;23;20370;-81
2023/05/21 07:50:06;;;;;;;10.05;5.97;;;;;;;;;;6218077;23;20859;-77
2023/05/21 07:52:32;;;;;;;8.15;5.22;;;;;;;;;;6239272;23;20907;-78
2023/05/21 07:54:58;;;;;;;9.97;5.63;;;16.70;99.90;;;;;;6243779;23;20390;-77
2023/05/21 07:57:23;;;;;;;8.53;5.47;;;16.80;99.90;;;;;;6242291;23;20828;-79
2023/05/21 07:59:50;;;;;;;9.65;5.20;;;;;;;;;;6218070;23;20366;-78
2023/05/21 08:02:16;;;;;;;8.77;5.75;;;;;;;;;;6216708;23;20368;-79
2023/05/21 08:04:43;;;;;;;9.20;5.35;;;;;;;;;;6241369;23;20369;-78
2023/05/21 08:07:09;;;;;;;9.00;5.37;;;;;;;;;;6241887;23;20369;-77
2023/05/21 08:09:35;;;;;;;11.10;5.50;;;;;;;;;;6242668;23;20819;-77
2023/05/21 08:12:01;;;;;;;9.35;5.15;;;;;;;;;;6243074;23;20366;-78
2023/05/21 08:14:30;;;;;;;8.75;5.05;;;;;;;;;;6215913;23;20370;-79
2023/05/21 08:16:56;;;;;;;9.87;5.00;;;;;;;;;;6242554;23;20469;-78
2023/05/21 08:19:21;;;;;;;9.05;5.45;;;17.60;99.90;;;;;;6215868;23;20361;-78
2023/05/21 08:21:47;;;;;;;13.83;4.97;;;;;;;;;;6219399;23;20368;-78
2023/05/21 08:24:13;;;;;;;8.90;5.40;;;17.70;99.90;;;;;;6243991;23;20445;-77
2023/05/21 08:26:39;;;;;;;10.47;5.23;;;18.00;99.90;;;;;;6216716;23;20488;-78
2023/05/21 08:29:05;;;;;;;9.75;5.38;;;18.00;99.90;;;;;;6240281;23;20361;-77
2023/05/21 08:31:31;;;;;;;9.25;5.10;;;;;;;;;;6218403;23;20441;-78
2023/05/21 08:33:57;;;;;;;10.35;5.28;;;;;;;;;;6217572;23;20374;-77
2023/05/21 08:36:23;;;;;;;10.57;5.30;;;18.00;99.90;;;;;;6242470;23;20390;-79
2023/05/21 08:38:49;;;;;;;10.32;5.47;;;17.90;99.90;;;;;;6243996;23;20417;-78
2023/05/21 08:41:17;;;;;;;9.77;5.33;;;18.40;99.90;;;;;;6215181;23;20366;-78
2023/05/21 08:43:46;;;;;;;9.00;5.55;;;18.40;99.90;;;;;;6241460;23;20445;-78
2023/05/21 08:46:12;;;;;;;8.60;5.38;;;18.40;99.90;;;;;;6241189;23;20376;-79
2023/05/21 08:48:39;;;;;;;8.20;5.10;;;18.60;99.90;;;;;;6217535;23;20465;-79
2023/05/21 08:51:05;;;;;;;8.20;5.17;;;;;;;;;;6216386;23;20374;-78
2023/05/21 08:53:37;;;;;;;9.25;5.03;;;;;;;;;;6244149;22;20443;-78
2023/05/21 08:56:05;;;;;;;9.05;5.07;;;18.80;99.90;;;;;;6192076;23;20464;-77
2023/05/21 08:58:32;;;;;;;10.57;5.40;;;18.80;99.90;;;;;;6242164;23;20721;-78
2023/05/21 09:00:58;;;;;;;10.20;5.60;;;19.20;99.90;;;;;;6242443;23;20361;-77
2023/05/21 09:03:24;;;;;;;9.73;5.38;;;18.90;99.90;;;;;;6236016;23;20370;-77
2023/05/21 09:05:51;;;;;;;18.38;5.75;;;;;;;;;;6239478;23;20451;-75
2023/05/21 09:08:17;;;;;;;9.60;5.20;;;19.10;99.90;;;;;;6189197;23;20933;-77
2023/05/21 09:10:51;;;;;;;8.15;5.40;;;19.10;99.90;;;;;;6241738;23;20839;-78
2023/05/21 09:13:18;;;;;;;9.98;5.18;;;;;;;;;;6240793;23;20378;-80
2023/05/21 09:15:47;;;;;;;9.95;5.50;;;;;;;;;;6242094;23;20885;-79
2023/05/21 09:18:13;;;;;;;8.90;5.57;;;;;;;;;;6217384;23;20373;-80
2023/05/21 09:20:40;;;;;;;8.70;5.30;;;;;;;;;;6216141;23;20361;-80
2023/05/21 09:23:15;;;;;;;8.82;4.93;;;19.20;99.90;;;;;;6217646;23;20378;-81
2023/05/21 09:25:43;;;;;;;8.27;5.20;;;19.30;99.90;;;;;;6242168;23;20373;-74
2023/05/21 09:28:13;;;;;;;9.10;5.15;;;;;;;;;;6215348;23;20405;-76
2023/05/21 09:30:46;;;;;;;9.80;5.50;;;;;;;;;;6212587;23;20369;-75
2023/05/21 09:33:23;;;;;;;11.65;5.90;;;19.70;99.90;;;;;;6242174;23;20362;-74
2023/05/21 09:35:49;;;;;;;8.82;5.07;;;19.50;99.90;;;;;;6213826;23;20390;-74
2023/05/21 09:38:16;;;;;;;9.00;5.25;;;19.90;99.90;;;;;;6215632;23;20362;-75
2023/05/21 09:40:47;;;;;;;9.23;5.30;;;19.50;99.90;;;;;;6216198;23;20449;-76
2023/05/21 09:43:14;;;;;;;8.67;5.40;;;19.40;99.90;;;;;;6241309;23;20381;-75
2023/05/21 09:45:50;;;;;;;8.67;5.47;;;;;;;;;;6240118;23;20365;-75
2023/05/21 09:48:16;;;;;;;7.70;5.03;;;19.60;99.90;;;;;;6243002;22;20358;-75
2023/05/21 09:50:44;;;;;;;7.07;5.00;;;;;;;;;;6241029;23;20854;-76
2023/05/21 09:53:13;;;;;;;11.73;5.53;;;19.50;99.90;;;;;;6216184;23;20366;-74
2023/05/21 09:55:40;;;;;;;8.70;5.40;;;;;;;;;;6239709;23;20390;-76
2023/05/21 09:58:06;;;;;;;8.27;5.20;;;19.50;99.90;;;;;;6215393;23;20852;-76
2023/05/21 10:00:32;;;;;;;10.05;5.15;;;;;;;;;;6218501;23;20881;-76
2023/05/21 10:03:06;;;;;;;9.20;5.53;;;;;;;;;;6242787;23;20460;-75
2023/05/21 10:05:33;;;;;;;9.15;5.40;;;;;;;;;;6217275;23;20472;-75
2023/05/21 10:08:01;;;;;;;9.77;5.40;;;19.80;99.90;;;;;;6239679;23;20366;-75
2023/05/21 10:10:28;;;;;;;8.95;5.00;;;20.00;99.90;;;;;;6216090;23;20390;-75
2023/05/21 10:12:58;;;;;;;8.85;4.95;;;20.00;99.90;;;;;;6243585;23;20411;-75
2023/05/21 10:15:24;;;;;;;9.82;5.10;;;;;;;;;;6216603;23;20393;-74
2023/05/21 10:17:51;;;;;;;9.00;5.45;;;19.90;99.90;;;;;;6243334;23;20358;-76
2023/05/21 10:20:17;;;;;;;8.73;5.20;;;20.10;99.90;;;;;;6241964;23;20389;-76
2023/05/21 10:22:43;;;;;;;8.80;5.10;;;20.20;99.90;;;;;;6239694;23;20388;-76
2023/05/21 10:25:11;;;;;;;8.55;5.40;;;20.20;99.90;;;;;;6242289;23;20804;-74
2023/05/21 10:27:37;;;;;;;9.38;4.90;;;;;;;;;;6246017;22;20455;-75
2023/05/21 10:30:05;;;;;;;10.07;4.93;;;20.40;99.90;;;;;;6218108;23;20366;-76
2023/05/21 10:32:31;;;;;;;9.30;4.90;;;20.20;99.90;;;;;;6239559;23;20401;-76
2023/05/21 10:34:58;;;;;;;12.00;5.40;;;20.00;99.90;;;;;;6242510;23;20361;-76
2023/05/21 10:37:27;;;;;;;8.45;4.93;;;20.20;99.90;;;;;;6244341;22;20362;-76
2023/05/21 10:39:54;;;;;;;8.20;4.85;;;;;;;;;;6243571;23;20361;-76
2023/05/21 10:42:32;;;;;;;9.13;4.60;;;19.70;99.90;;;;;;6243167;23;20362;-75
2023/05/21 10:45:58;;;;;;;11.32;4.80;;;20.30;99.90;;;;;;6217535;23;20367;-76
2023/05/21 10:48:53;;;;;;;9.57;5.03;;;20.20;99.90;;;;;;6149931;23;20406;-75
2023/05/21 10:51:48;;;;;;;7.55;4.85;;;20.30;99.90;;;;;;6242367;23;20365;-76
2023/05/21 10:54:56;;;;;;;8.18;5.05;;;20.20;99.90;;;;;;6242974;23;20373;-75
2023/05/21 10:57:38;;;;;;;10.07;4.75;;;20.20;99.90;;;;;;6242008;23;20382;-75
2023/05/21 11:00:06;;;;;;;8.13;4.80;;;20.30;99.90;;;;;;6212812;23;20366;-74
2023/05/21 11:02:33;;;;;;;8.52;4.97;;;20.10;99.90;;;;;;6242636;22;20354;-75
2023/05/21 11:04:59;;;;;;;10.23;5.00;;;20.50;99.90;;;;;;6240948;23;20419;-75
2023/05/21 11:07:55;;;;;;;9.38;4.82;;;20.60;99.90;;;;;;6215279;23;20512;-76
2023/05/21 11:10:39;;;;;;;8.40;5.03;;;20.60;99.90;;;;;;6239905;23;20361;-75
2023/05/21 11:13:13;;;;;;;8.70;5.30;;;20.50;99.90;;;;;;6240029;23;20386;-75
2023/05/21 11:16:06;;;;;;;9.57;5.10;;;20.40;99.90;;;;;;6215253;23;20451;-75
2023/05/21 11:18:36;;;;;;;6.97;4.70;;;20.40;99.90;;;;;;6239527;23;20366;-75
2023/05/21 11:21:29;;;;;;;8.98;4.50;;;20.30;99.90;;;;;;6240365;23;20366;-76
2023/05/21 11:24:05;;;;;;;11.18;5.00;;;20.60;99.90;;;;;;6234405;23;20393;-75
2023/05/21 11:26:50;;;;;;;9.57;4.95;;;20.80;99.90;;;;;;6239429;23;20704;-74
2023/05/21 11:29:17;;;;;;;9.60;5.72;;;21.00;99.90;;;;;;6213341;23;20424;-75
2023/05/21 11:31:48;;;;;;;10.02;4.93;;;20.80;99.90;;;;;;6212618;23;20370;-74
2023/05/21 11:34:27;;;;;;;11.07;5.15;;;20.90;99.90;;;;;;6239329;23;20362;-74
2023/05/21 11:37:13;;;;;;;8.95;5.05;;;;;;;;;;6236831;23;20451;-75
2023/05/21 11:39:39;;;;;;;10.07;5.10;;;21.30;99.90;;;;;;6238570;23;20366;-74
2023/05/21 11:42:04;;;;;;;11.27;5.18;;;21.00;99.90;;;;;;6239540;23;20388;-75
2023/05/21 11:44:44;;;;;;;8.83;4.97;;;21.30;99.90;;;;;;6212260;23;20378;-76
2023/05/21 11:47:15;;;;;;;10.32;4.85;;;21.50;99.90;;;;;;6240564;23;20370;-75
2023/05/21 11:49:41;;;;;;;9.43;5.20;;;21.40;99.90;;;;;;6239105;23;20374;-75
2023/05/21 11:52:08;;;;;;;9.27;5.25;;;21.70;99.90;;;;;;6213651;23;20369;-75
2023/05/21 11:54:49;;;;;;;10.82;5.85;;;21.70;99.90;;;;;;6240459;23;20757;-79
2023/05/21 11:57:17;;;;;;;10.97;5.70;;;21.70;99.90;;;;;;6244356;23;20374;-78
2023/05/21 11:59:44;;;;;;;11.70;6.80;;;21.80;99.90;;;;;;6243723;23;20381;-79
2023/05/21 12:02:15;;;;;;;10.07;6.50;;;21.70;99.90;;;;;;6217135;23;20724;-79
2023/05/21 12:04:41;;;;;;;12.88;6.75;;;21.60;99.90;;;;;;6240412;23;20366;-79
2023/05/21 12:07:09;;;;;;;11.73;7.15;;;21.70;99.90;;;;;;6239081;23;20370;-79
2023/05/21 12:09:38;;;;;;;9.93;6.20;;;21.40;99.90;;;;;;6239010;23;20394;-79
2023/05/21 12:12:05;;;;;;;11.55;6.40;;;21.50;99.90;;;;;;6241703;23;20372;-78
2023/05/21 12:14:31;;;;;;;11.43;6.97;;;21.60;99.90;;;;;;6215298;23;20746;-79
2023/05/21 12:16:57;;;;;;;9.82;6.60;;;21.20;99.90;;;;;;6243720;23;20378;-79
2023/05/21 12:19:22;;;;;;;11.57;7.03;;;21.30;99.90;;;;;;6191252;23;20373;-79
2023/05/21 12:21:48;;;;;;;10.97;7.77;;;21.50;99.90;;;;;;6241527;23;20387;-80
2023/05/21 12:24:15;;;;;;;11.60;7.20;;;21.40;99.90;;;;;;6240305;23;20424;-79
2023/05/21 12:26:43;;;;;;;10.82;7.25;;;21.60;99.90;;;;;;6242312;23;20409;-80
2023/05/21 12:29:09;;;;;;;10.75;7.47;;;21.70;99.90;;;;;;6241335;23;20428;-80
2023/05/21 12:31:48;;;;;;;11.60;8.43;;;21.70;99.90;;;;;;6242597;23;20902;-80
2023/05/21 12:34:17;;;;;;;13.07;8.57;;;22.10;99.90;;;;;;6241101;22;20447;-80
2023/05/21 12:36:50;;;;;;;14.13;9.13;;;21.90;99.90;;;;;;6216965;23;20390;-79
2023/05/21 12:39:16;;;;;;;14.05;8.00;;;22.00;99.90;;;;;;6217723;23;20400;-80
2023/05/21 12:41:42;;;;;;;14.33;8.47;;;22.10;99.90;;;;;;6215328;23;20398;-80
2023/05/21 12:44:10;;;;;;;13.68;9.48;;;21.90;99.90;;;;;;6242343;23;20366;-79
2023/05/21 12:46:36;;;;;;;15.97;8.70;;;22.50;99.90;;;;;;6242408;23;20366;-80
2023/05/21 12:49:02;;;;;;;14.00;9.20;;;22.30;99.90;;;;;;6244204;23;20362;-80
2023/05/21 12:51:38;;;;;;;13.77;9.00;;;22.40;99.90;;;;;;6239333;23;20361;-80
2023/05/21 12:54:10;;;;;;;12.82;9.20;;;22.50;99.90;;;;;;6240899;23;20370;-80
2023/05/21 12:56:44;;;;;;;13.98;9.05;;;22.90;99.90;;;;;;6216636;23;20386;-80
2023/05/21 12:59:14;;;;;;;12.77;8.43;;;22.90;99.90;;;;;;6241640;23;20362;-80
2023/05/21 13:01:40;;;;;;;14.95;8.93;;;22.70;99.90;;;;;;6240018;23;20389;-80
2023/05/21 13:04:07;;;;;;;15.30;9.43;;;22.70;99.90;;;;;;6241378;23;20808;-79
2023/05/21 13:06:43;;;;;;;12.30;9.10;;;22.60;99.90;;;;;;6216650;23;20394;-80
2023/05/21 13:09:08;;;;;;;13.90;8.82;;;22.40;99.90;;;;;;6241306;23;20401;-79
2023/05/21 13:11:34;;;;;;;12.55;9.07;;;22.80;99.90;;;;;;6241592;23;20704;-80
2023/05/21 13:14:00;;;;;;;12.73;9.70;;;22.60;99.90;;;;;;6240195;23;20420;-80
2023/05/21 13:16:26;;;;;;;13.20;9.67;;;22.60;99.90;;;;;;6214872;23;20468;-80
2023/05/21 13:18:51;;;;;;;13.48;9.60;;;22.70;99.90;;;;;;6217129;23;20366;-78
2023/05/21 13:21:17;;;;;;;13.90;9.37;;;22.70;99.90;;;;;;6211014;23;20437;-78
2023/05/21 13:23:43;;;;;;;13.67;9.87;;;22.50;99.90;;;;;;6239513;23;20712;-79
2023/05/21 13:26:08;;;;;;;13.13;9.88;;;22.60;99.90;;;;;;6241549;23;20406;-80
2023/05/21 13:28:34;;;;;;;14.67;10.10;;;22.60;99.90;;;;;;6216747;23;20370;-80
2023/05/21 13:31:00;;;;;;;16.65;10.60;;;22.70;99.90;;;;;;6238960;23;20371;-79
2023/05/21 13:33:25;;;;;;;13.83;10.17;;;22.70;99.90;;;;;;6215518;23;20754;-79
2023/05/21 13:35:51;;;;;;;17.17;9.80;;;22.70;99.90;;;;;;6191904;23;20393;-80
2023/05/21 13:38:17;;;;;;;15.15;9.55;;;22.70;99.90;;;;;;6246151;23;20354;-80
2023/05/21 13:40:43;;;;;;;17.42;10.02;;;22.80;99.90;;;;;;6244951;23;20358;-79
2023/05/21 13:43:08;;;;;;;13.53;10.00;;;22.90;99.90;;;;;;6218604;23;20365;-78
2023/05/21 13:45:34;;;;;;;15.13;10.75;;;23.00;99.90;;;;;;6243074;23;20441;-79
2023/05/21 13:48:00;;;;;;;13.55;10.70;;;23.20;99.90;;;;;;6241228;23;20381;-80
2023/05/21 13:50:26;;;;;;;13.87;10.13;;;22.80;99.90;;;;;;6243936;23;20381;-79